createdAt,value
2023-01-29T00:10:33.052Z,81.71
2023-01-29T00:21:48.025Z,81.82
2023-01-29T00:51:03.337Z,80.96
2023-01-29T01:09:57.499Z,80.56
2023-01-29T01:21:51.778Z,80.02
2023-01-29T01:25:49.382Z,79.46
2023-01-29T01:29:19.778Z,79.06
2023-01-29T01:32:55.095Z,79.14
2023-01-29T01:36:25.790Z,78.88
2023-01-29T01:39:54.204Z,78.95
2023-01-29T01:43:10.084Z,78.80
2023-01-29T02:06:03.212Z,78.88
2023-01-29T02:30:03.369Z,78.75
2023-01-29T02:38:29.948Z,78.84
2023-01-29T02:48:42.768Z,78.72
2023-01-29T03:05:05.231Z,78.21
2023-01-29T03:30:34.337Z,79.18
2023-01-29T03:34:18.086Z,79.19
2023-01-29T03:38:05.043Z,79.51
2023-01-29T03:41:39.872Z,79.54
2023-01-29T03:56:45.063Z,78.70
2023-01-29T04:07:00.362Z,78.46
2023-01-29T04:22:34.107Z,78.15
2023-01-29T04:45:25.762Z,77.83
2023-01-29T04:48:32.573Z,77.42
2023-01-29T04:51:32.786Z,77.51
2023-01-29T04:54:19.635Z,77.31
2023-01-29T04:57:29.500Z,77.36
2023-01-29T05:00:32.601Z,77.43
2023-01-29T05:03:03.294Z,77.34
2023-01-29T05:05:32.213Z,77.33
2023-01-29T05:08:01.040Z,77.36
2023-01-29T05:10:30.712Z,77.31
2023-01-29T05:13:03.782Z,77.18
2023-01-29T05:15:49.498Z,77.23
2023-01-29T05:18:18.232Z,77.48
2023-01-29T05:20:48.957Z,77.53
2023-01-29T05:23:20.074Z,76.83
2023-01-29T05:25:51.976Z,76.95
2023-01-29T05:28:20.626Z,76.82
2023-01-29T05:30:56.469Z,77.15
2023-01-29T05:33:27.594Z,77.09
2023-01-29T05:35:59.873Z,76.78
2023-01-29T05:38:28.611Z,76.85
2023-01-29T05:40:59.994Z,77.01
2023-01-29T05:43:28.773Z,77.31
2023-01-29T05:46:02.341Z,77.33
2023-01-29T05:48:32.539Z,77.55
2023-01-29T05:51:05.914Z,77.37
2023-01-29T05:53:34.992Z,77.56
2023-01-29T05:56:05.653Z,77.80
2023-01-29T05:58:35.173Z,78.05
2023-01-29T06:01:17.892Z,78.38
2023-01-29T06:03:47.046Z,78.63
2023-01-29T06:06:16.074Z,78.67
2023-01-29T06:08:44.794Z,78.85
2023-01-29T06:11:15.492Z,79.03
2023-01-29T06:13:45.758Z,79.20
2023-01-29T06:16:14.932Z,79.43
2023-01-29T06:18:44.135Z,79.63
2023-01-29T06:21:14.555Z,79.69
2023-01-29T06:23:43.274Z,79.90
2023-01-29T06:26:15.534Z,80.02
2023-01-29T06:28:46.261Z,80.19
2023-01-29T06:31:35.289Z,80.30
2023-01-29T06:34:04.176Z,80.35
2023-01-29T06:36:32.868Z,80.38
2023-01-29T06:39:01.744Z,80.41
2023-01-29T06:41:30.442Z,80.49
2023-01-29T06:43:59.267Z,80.44
2023-01-29T06:46:28.149Z,80.32
2023-01-29T06:49:00.901Z,80.09
2023-01-29T06:51:29.735Z,80.26
2023-01-29T06:53:58.657Z,80.31
2023-01-29T06:56:27.620Z,80.42
2023-01-29T06:58:56.318Z,80.30
2023-01-29T07:01:35.739Z,80.30
2023-01-29T07:04:05.215Z,80.20
2023-01-29T07:06:34.504Z,80.27
2023-01-29T07:09:04.827Z,80.24
2023-01-29T07:11:35.896Z,80.22
2023-01-29T07:14:05.172Z,79.95
2023-01-29T07:16:34.515Z,79.66
2023-01-29T07:19:03.330Z,79.66
2023-01-29T07:21:32.011Z,79.70
2023-01-29T07:24:00.640Z,79.45
2023-01-29T07:26:29.535Z,78.98
2023-01-29T07:28:58.142Z,78.89
2023-01-29T07:31:26.859Z,78.64
2023-01-29T07:33:56.207Z,78.17
2023-01-29T07:36:24.887Z,77.77
2023-01-29T07:38:53.631Z,77.71
2023-01-29T07:41:22.716Z,78.04
2023-01-29T07:43:51.478Z,77.85
2023-01-29T07:46:20.195Z,77.56
2023-01-29T07:48:48.753Z,77.55
2023-01-29T07:51:18.775Z,77.53
2023-01-29T07:53:48.113Z,77.59
2023-01-29T07:56:16.905Z,77.76
2023-01-29T07:58:46.111Z,77.96
2023-01-29T08:01:14.984Z,77.46
2023-01-29T08:03:43.699Z,77.44
2023-01-29T08:06:12.284Z,77.35
2023-01-29T08:08:40.873Z,77.47
2023-01-29T08:11:09.691Z,77.43
2023-01-29T08:13:38.371Z,77.14
2023-01-29T08:16:07.710Z,77.39
2023-01-29T08:18:38.281Z,76.99
2023-01-29T08:21:06.913Z,76.56
2023-01-29T08:23:35.557Z,76.45
2023-01-29T08:26:04.714Z,76.44
2023-01-29T08:28:34.013Z,76.50
2023-01-29T08:31:02.730Z,76.44
2023-01-29T08:33:39.147Z,76.81
2023-01-29T08:36:09.860Z,76.38
2023-01-29T08:38:38.775Z,76.22
2023-01-29T08:41:08.614Z,76.15
2023-01-29T08:43:37.450Z,75.91
2023-01-29T08:46:07.867Z,75.99
2023-01-29T08:48:36.787Z,76.06
2023-01-29T08:51:05.814Z,75.92
2023-01-29T08:53:34.492Z,75.83
2023-01-29T08:56:03.215Z,75.96
2023-01-29T08:58:31.897Z,75.49
2023-01-29T09:01:09.636Z,74.98
2023-01-29T09:03:41.270Z,75.17
2023-01-29T09:06:12.900Z,75.31
2023-01-29T09:08:41.905Z,75.04
2023-01-29T09:11:11.600Z,75.13
2023-01-29T09:13:40.314Z,75.47
2023-01-29T09:16:10.733Z,75.02
2023-01-29T09:18:39.474Z,75.15
2023-01-29T09:21:08.624Z,75.52
2023-01-29T09:23:37.458Z,74.76
2023-01-29T09:26:08.692Z,74.82
2023-01-29T09:28:37.373Z,74.68
2023-01-29T09:31:06.301Z,74.19
2023-01-29T09:33:35.132Z,74.23
2023-01-29T09:36:04.912Z,74.39
2023-01-29T09:38:33.537Z,74.48
2023-01-29T09:41:29.387Z,74.29
2023-01-29T09:44:07.456Z,74.03
2023-01-29T09:46:49.518Z,73.46
2023-01-29T09:49:36.072Z,73.82
2023-01-29T09:52:35.513Z,73.63
2023-01-29T09:55:12.671Z,73.05
2023-01-29T09:58:28.812Z,72.61
2023-01-29T10:01:34.758Z,72.93
2023-01-29T10:04:46.952Z,72.32
2023-01-29T10:07:53.294Z,73.11
2023-01-29T10:10:51.977Z,72.33
2023-01-29T10:13:42.015Z,73.15
2023-01-29T10:16:51.998Z,73.36
2023-01-29T10:19:45.089Z,72.56
2023-01-29T10:22:46.246Z,71.78
2023-01-29T10:25:20.919Z,72.26
2023-01-29T10:27:57.556Z,72.60
2023-01-29T10:30:34.317Z,72.58
2023-01-29T10:33:06.815Z,72.28
2023-01-29T10:35:43.174Z,72.31
2023-01-29T10:38:44.820Z,72.51
2023-01-29T10:41:31.312Z,72.72
2023-01-29T10:44:28.253Z,72.58
2023-01-29T10:47:30.687Z,72.34
2023-01-29T10:50:33.752Z,72.89
2023-01-29T10:53:27.933Z,73.03
2023-01-29T10:56:23.693Z,73.12
2023-01-29T10:58:59.792Z,73.67
2023-01-29T11:01:28.673Z,73.51
2023-01-29T11:04:05.234Z,73.50
2023-01-29T11:06:37.399Z,73.39
2023-01-29T11:12:17.351Z,73.50
2023-01-29T11:15:00.833Z,73.47
2023-01-29T11:17:29.547Z,73.71
2023-01-29T11:19:58.205Z,73.70
2023-01-29T11:22:30.484Z,74.39
2023-01-29T11:25:20.817Z,75.01
2023-01-29T11:28:03.332Z,75.56
2023-01-29T11:30:39.429Z,75.58
2023-01-29T11:33:20.956Z,75.91
2023-01-29T11:35:49.996Z,76.48
2023-01-29T11:38:27.553Z,77.10
2023-01-29T11:41:22.698Z,77.59
2023-01-29T11:43:51.415Z,78.27
2023-01-29T11:46:20.315Z,78.99
2023-01-29T11:48:58.943Z,79.62
2023-01-29T11:51:37.971Z,80.35
2023-01-29T11:54:16.074Z,80.97
2023-01-29T11:56:48.743Z,81.57
2023-01-29T11:59:30.596Z,82.05
2023-01-29T12:02:24.155Z,82.30
2023-01-29T12:04:57.037Z,82.47
2023-01-29T12:07:26.352Z,82.35
2023-01-29T12:09:59.181Z,82.22
2023-01-29T12:12:40.491Z,82.17
2023-01-29T12:15:09.099Z,81.85
2023-01-29T12:17:40.293Z,81.70
2023-01-29T12:20:21.380Z,81.44
2023-01-29T12:23:09.054Z,80.96
2023-01-29T12:26:05.751Z,80.60
2023-01-29T12:29:14.212Z,80.04
2023-01-29T12:32:33.043Z,79.74
2023-01-29T12:35:25.736Z,79.69
2023-01-29T12:38:03.738Z,79.53
2023-01-29T12:40:44.375Z,78.97
2023-01-29T12:44:05.153Z,78.78
2023-01-29T12:46:50.849Z,79.04
2023-01-29T12:49:28.315Z,78.98
2023-01-29T12:52:21.535Z,78.21
2023-01-29T12:55:01.525Z,78.20
2023-01-29T12:57:57.588Z,78.09
2023-01-29T13:00:30.854Z,77.59
2023-01-29T13:03:08.661Z,77.68
2023-01-29T13:05:57.795Z,77.61
2023-01-29T13:08:46.000Z,78.04
2023-01-29T13:11:28.658Z,77.52
2023-01-29T13:14:07.054Z,77.13
2023-01-29T13:16:44.331Z,77.17
2023-01-29T13:19:29.093Z,77.43
2023-01-29T13:22:03.155Z,77.46
2023-01-29T13:24:42.334Z,77.48
2023-01-29T13:27:30.711Z,77.77
2023-01-29T13:30:01.005Z,77.71
2023-01-29T13:32:36.676Z,77.76
2023-01-29T13:35:15.609Z,77.76
2023-01-29T13:38:03.771Z,77.77
2023-01-29T13:40:35.000Z,78.10
2023-01-29T13:43:04.396Z,78.10
2023-01-29T13:45:46.337Z,77.72
2023-01-29T13:48:29.665Z,78.08
2023-01-29T13:51:03.879Z,78.47
2023-01-29T13:53:41.593Z,78.69
2023-01-29T13:56:33.772Z,78.81
2023-01-29T13:59:07.036Z,78.61
2023-01-29T14:01:47.846Z,78.91
2023-01-29T14:04:19.354Z,78.85
2023-01-29T14:06:52.265Z,79.07
2023-01-29T14:09:39.303Z,79.29
2023-01-29T14:12:39.538Z,79.57
2023-01-29T14:15:32.187Z,79.69
2023-01-29T14:18:20.361Z,79.79
2023-01-29T14:20:49.961Z,79.94
2023-01-29T14:23:38.164Z,80.23
2023-01-29T14:26:22.842Z,80.38
2023-01-29T14:29:02.671Z,80.34
2023-01-29T14:31:51.044Z,80.39
2023-01-29T14:34:42.960Z,80.71
2023-01-29T14:37:39.771Z,81.61
2023-01-29T14:40:11.495Z,81.94
2023-01-29T14:42:47.755Z,82.10
2023-01-29T14:45:35.224Z,81.98
2023-01-29T14:48:10.301Z,81.88
2023-01-29T14:50:47.567Z,81.94
2023-01-29T14:53:23.572Z,82.01
2023-01-29T14:56:16.114Z,82.09
2023-01-29T14:59:21.190Z,82.06
2023-01-29T15:01:56.994Z,81.97
2023-01-29T15:04:40.673Z,82.12
2023-01-29T15:07:12.138Z,82.22
2023-01-29T15:10:22.029Z,82.29
2023-01-29T15:13:05.224Z,82.33
2023-01-29T15:16:09.622Z,82.31
2023-01-29T15:18:42.482Z,82.35
2023-01-29T15:21:20.053Z,82.40
2023-01-29T15:24:03.626Z,82.41
2023-01-29T15:26:33.814Z,82.43
2023-01-29T15:29:04.700Z,82.50
2023-01-29T15:31:35.820Z,82.59
2023-01-29T15:34:08.040Z,82.73
2023-01-29T15:36:40.381Z,82.76
2023-01-29T15:39:24.495Z,82.77
2023-01-29T15:42:14.643Z,82.97
2023-01-29T15:44:47.018Z,83.21
2023-01-29T15:47:16.517Z,83.43
2023-01-29T15:49:47.995Z,83.63
2023-01-29T15:52:24.574Z,83.80
2023-01-29T15:54:57.306Z,83.80
2023-01-29T15:57:37.986Z,83.91
2023-01-29T16:00:19.156Z,83.99
2023-01-29T16:02:48.894Z,84.15
2023-01-29T16:05:32.559Z,84.10
2023-01-29T16:08:02.237Z,84.13
2023-01-29T16:10:34.054Z,84.26
2023-01-29T16:13:04.409Z,84.23
2023-01-29T16:15:41.217Z,84.17
2023-01-29T16:18:30.233Z,84.31
2023-01-29T16:21:07.020Z,84.17
2023-01-29T16:23:54.855Z,84.27
2023-01-29T16:26:35.414Z,84.28
2023-01-29T16:29:17.497Z,84.17
2023-01-29T16:31:50.883Z,84.24
2023-01-29T16:34:42.898Z,84.19
2023-01-29T16:37:37.026Z,84.26
2023-01-29T16:40:33.457Z,84.26
2023-01-29T16:43:31.248Z,84.40
2023-01-29T16:46:16.239Z,84.72
2023-01-29T16:48:45.227Z,84.61
2023-01-29T16:51:37.897Z,84.45
2023-01-29T16:54:19.403Z,84.53
2023-01-29T16:56:52.393Z,84.70
2023-01-29T16:59:33.936Z,84.87
2023-01-29T17:02:04.814Z,84.82
2023-01-29T17:04:34.467Z,84.82
2023-01-29T17:07:03.298Z,85.09
2023-01-29T17:09:38.362Z,85.10
2023-01-29T17:12:20.275Z,85.14
2023-01-29T17:15:00.814Z,85.19
2023-01-29T17:17:36.504Z,85.13
2023-01-29T17:20:16.839Z,85.03
2023-01-29T17:22:47.307Z,84.96
2023-01-29T17:25:17.425Z,84.93
2023-01-29T17:27:51.890Z,84.77
2023-01-29T17:30:24.775Z,84.47
2023-01-29T17:32:54.133Z,84.05
2023-01-29T17:35:23.295Z,83.66
2023-01-29T17:37:52.041Z,83.53
2023-01-29T17:40:40.934Z,83.26
2023-01-29T17:43:12.004Z,83.01
2023-01-29T17:45:41.194Z,82.79
2023-01-29T17:48:25.486Z,82.73
2023-01-29T17:50:59.261Z,82.70
2023-01-29T17:53:43.312Z,82.67
2023-01-29T17:56:33.004Z,82.55
2023-01-29T17:59:02.272Z,82.43
2023-01-29T18:01:31.046Z,82.35
2023-01-29T18:03:59.719Z,82.29
2023-01-29T18:06:30.453Z,82.29
2023-01-29T18:08:59.259Z,82.26
2023-01-29T18:11:29.076Z,82.11
2023-01-29T18:13:58.655Z,81.99
2023-01-29T18:16:36.976Z,81.85
2023-01-29T18:19:22.709Z,81.51
2023-01-29T18:21:51.663Z,81.45
2023-01-29T18:24:21.753Z,81.56
2023-01-29T18:26:51.632Z,81.82
2023-01-29T18:29:20.354Z,82.02
2023-01-29T18:31:50.188Z,82.17
2023-01-29T18:34:19.476Z,82.27
2023-01-29T18:36:48.521Z,82.07
2023-01-29T18:39:17.714Z,81.98
2023-01-29T18:41:46.354Z,81.90
2023-01-29T18:44:15.059Z,81.85
2023-01-29T18:46:43.861Z,81.72
2023-01-29T18:49:12.594Z,81.58
2023-01-29T18:51:41.353Z,81.34
2023-01-29T18:54:13.482Z,81.32
2023-01-29T18:57:06.166Z,81.16
2023-01-29T18:59:31.507Z,81.08
2023-01-29T19:02:00.359Z,80.98
2023-01-29T19:04:29.234Z,80.78
2023-01-29T19:06:57.934Z,80.87
2023-01-29T19:09:26.844Z,81.02
2023-01-29T19:11:55.618Z,80.99
2023-01-29T19:14:24.396Z,81.12
2023-01-29T19:16:53.151Z,81.17
2023-01-29T19:19:22.036Z,81.23
2023-01-29T19:21:55.914Z,81.32
2023-01-29T19:24:24.706Z,81.49
2023-01-29T19:26:54.084Z,81.59
2023-01-29T19:29:23.019Z,81.83
2023-01-29T19:31:51.754Z,82.20
2023-01-29T19:34:20.474Z,82.42
2023-01-29T19:36:49.215Z,82.68
2023-01-29T19:39:17.980Z,82.70
2023-01-29T19:41:46.715Z,82.73
2023-01-29T19:44:15.434Z,82.91
2023-01-29T19:46:44.257Z,82.94
2023-01-29T20:10:47.758Z,83.55
2023-01-29T20:13:16.730Z,83.70
2023-01-29T20:15:50.497Z,83.83
2023-01-29T20:18:20.343Z,83.98
2023-01-29T20:20:53.822Z,83.83
2023-01-29T20:23:36.560Z,83.78
2023-01-29T20:26:15.915Z,83.71
2023-01-29T20:47:33.843Z,83.28
2023-01-29T20:50:09.021Z,83.28
2023-01-29T20:52:40.245Z,83.41
2023-01-29T20:55:12.557Z,83.48
2023-01-29T20:57:41.618Z,83.63
2023-01-29T21:00:15.865Z,83.85
2023-01-29T21:02:46.233Z,83.99
2023-01-29T21:05:16.885Z,84.26
2023-01-29T21:07:45.660Z,84.44
2023-01-29T21:10:15.151Z,84.47
2023-01-29T21:12:44.082Z,84.51
2023-01-29T21:15:12.979Z,84.48
2023-01-29T21:17:41.797Z,84.53
2023-01-29T21:20:11.338Z,84.63
2023-01-29T21:22:42.957Z,84.75
2023-01-29T21:25:12.197Z,84.80
2023-01-29T21:27:40.977Z,84.78
2023-01-29T21:30:10.636Z,84.76
2023-01-29T21:32:39.395Z,84.60
2023-01-29T21:35:08.856Z,84.43
2023-01-29T21:37:38.316Z,84.35
2023-01-29T21:40:09.096Z,84.19
2023-01-29T21:42:56.460Z,84.00
2023-01-29T21:45:25.839Z,83.85
2023-01-29T21:47:55.267Z,83.72
2023-01-29T21:50:24.477Z,83.72
2023-01-29T21:52:54.249Z,83.57
2023-01-29T21:55:23.056Z,83.47
2023-01-29T21:57:51.838Z,83.42
2023-01-29T22:00:20.776Z,83.40
2023-01-29T22:02:50.644Z,83.45
2023-01-29T22:05:20.439Z,83.40
2023-01-29T22:07:50.360Z,83.34
2023-01-29T22:10:20.545Z,83.30
2023-01-29T22:12:49.747Z,83.30
2023-01-29T22:15:18.722Z,83.35
2023-01-29T22:17:47.401Z,83.40
2023-01-29T22:20:16.656Z,83.33
2023-01-29T22:22:45.686Z,83.26
2023-01-29T22:25:20.224Z,83.18
2023-01-29T22:27:48.922Z,83.12
2023-01-29T22:30:18.449Z,82.94
2023-01-29T22:32:47.229Z,82.89
2023-01-29T22:35:16.101Z,82.61
2023-01-29T22:37:45.485Z,82.52
2023-01-29T22:40:14.711Z,82.48
2023-01-29T22:42:43.507Z,82.23
2023-01-29T22:45:12.799Z,82.09
2023-01-29T22:47:41.547Z,81.92
2023-01-29T22:50:11.345Z,81.79
2023-01-29T22:52:42.864Z,81.50
2023-01-29T22:55:13.690Z,81.40
2023-01-29T22:57:42.375Z,81.33
2023-01-29T23:01:32.035Z,81.25
2023-01-29T23:06:00.982Z,81.08
2023-01-29T23:20:28.505Z,80.33
2023-01-29T23:24:24.607Z,80.06
2023-01-29T23:28:05.144Z,79.85
2023-01-29T23:31:56.796Z,79.60
2023-01-29T23:35:28.501Z,79.14
2023-01-29T23:39:48.373Z,79.21
2023-01-29T23:44:00.427Z,79.13
2023-01-29T23:47:31.454Z,79.29
2023-01-29T23:51:02.160Z,79.07
2023-01-29T23:54:32.445Z,79.13
2023-01-29T23:58:02.206Z,78.94
